Flight Track Log - Related Links

Times and Time Zones

All times are in EDT time to prevent confusion due to time zone crossing. See the SWA565 flight status page for this flight to view local times or setup timezone preferences in your user account.

Time Position Orientation Groundspeed Altitude Reporting Facility
EDT Latitude Longitude Course Direction KTS MPH feet Rate Location/Type
Thu 01:36:27 AM 36.1167 -115.1467 336° Northwest 176 203 3,500  Level Los Angeles Center
Thu 01:36:52 AM 36.1389 -115.1592 336° Northwest 242 278 4,400 2,512 Climbing Los Angeles Center
Thu 01:37:10 AM 36.1422 -115.1836 280° West 232 267 5,300 3,148 Climbing Los Angeles Center
Thu 01:37:53 AM 36.1206 -115.2372 243° Southwest 268 308 7,600 3,000 Climbing Los Angeles Center
Thu 01:38:54 AM 36.0736 -115.3078 231° Southwest 273 314 10,500 2,115 Climbing Los Angeles Center
Thu 01:39:55 AM 36.0242 -115.3986 236° Southwest 343 395 11,900 2,213 Climbing Los Angeles Center
Thu 01:40:56 AM 35.9989 -115.5194 256° West 357 411 15,000 2,705 Climbing Los Angeles Center
Thu 01:41:57 AM 36.0097 -115.6394 276° West 348 400 17,400 2,213 Climbing Los Angeles Center
Thu 01:42:58 AM 36.0475 -115.7533 292° West 357 411 19,500 2,016 Climbing Los Angeles Center
Thu 01:43:59 AM 36.0864 -115.8697 292° West 368 423 21,500 1,869 Climbing Los Angeles Center
Thu 01:45:00 AM 36.1253 -115.9894 292° West 375 432 23,300 1,770 Climbing Los Angeles Center
Thu 01:46:01 AM 36.1672 -116.1147 293° West 383 441 25,100 1,426 Climbing Los Angeles Center
Thu 01:47:02 AM 36.2069 -116.2392 292° West 388 447 26,200 1,475 Climbing Los Angeles Center
Thu 01:48:03 AM 36.2481 -116.3647 292° West 391 450 28,100 2,016 Climbing Los Angeles Center
Thu 01:49:04 AM 36.2908 -116.4922 293° West 395 455 30,300 1,869 Climbing Los Angeles Center
Thu 01:50:05 AM 36.3292 -116.6136 291° West 392 451 31,900 1,525 Climbing Los Angeles Center
Thu 01:51:06 AM 36.3689 -116.7347 292° West 386 444 33,400 1,377 Climbing Los Angeles Center
Thu 01:52:07 AM 36.4081 -116.8561 292° West 382 440 34,700 1,279 Climbing Los Angeles Center
Thu 01:53:08 AM 36.4464 -116.9778 291° West 381 438 36,000 639 Climbing Los Angeles Center
Thu 01:54:09 AM 36.4836 -117.0956 291° West 374 430 36,000  Level Los Angeles Center
Thu 01:55:10 AM 36.5306 -117.2408 292° West 377 434 36,000  Level Los Angeles Center
Thu 01:56:11 AM 36.5694 -117.3644 291° West 383 441 36,000 -98 Level Los Angeles Center
Thu 01:57:12 AM 36.6089 -117.4897 291° West 388 447 35,800 -590 Descending Los Angeles Center
Thu 01:58:13 AM 36.6486 -117.6153 292° West 391 450 34,800 -1,131 Descending Los Angeles Center
Thu 01:59:14 AM 36.6883 -117.7447 291° West 399 459 33,500 -1,082 Descending Los Angeles Center
Thu 02:00:15 AM 36.7281 -117.8728 291° West 398 458 32,600 -738 Descending Los Angeles Center
Thu 02:01:16 AM 36.7672 -118.0039 290° West 403 464 32,000 -295 Descending Los Angeles Center
Thu 02:02:17 AM 36.8108 -118.1447 291° West 396 456 32,000  Level Los Angeles Center
Thu 02:03:18 AM 36.8500 -118.2708 291° West 392 451 32,000  Level Los Angeles Center
Thu 02:04:17 AM 36.8831 -118.3897 289° West 378 435 32,000  Level Oakland Center
Thu 02:05:18 AM 36.9233 -118.5222 291° West 388 447 32,000  Level Oakland Center
Thu 02:06:19 AM 36.9625 -118.6503 291° West 394 453 32,000  Level Oakland Center
Thu 02:07:19 AM 37.0006 -118.7769 291° West 392 451 32,000  Level Oakland Center
Thu 02:08:20 AM 37.0400 -118.9064 291° West 398 458 32,000  Level Oakland Center
Thu 02:09:20 AM 37.0786 -119.0375 290° West 402 463 32,000  Level Oakland Center
Thu 02:10:21 AM 37.1169 -119.1664 290° West 401 461 32,000  Level Oakland Center
Thu 02:11:21 AM 37.1553 -119.2958 290° West 400 460 32,000  Level Oakland Center
Thu 02:12:22 AM 37.1931 -119.4294 290° West 410 472 32,000  Level Oakland Center
Thu 02:13:22 AM 37.2311 -119.5589 290° West 408 470 32,000  Level Oakland Center
Thu 02:14:23 AM 37.2689 -119.6897 290° West 403 464 32,000  Level Oakland Center
Thu 02:15:24 AM 37.3106 -119.8336 290° West 398 458 32,000  Level Oakland Center
Thu 02:16:24 AM 37.3489 -119.9689 290° West 407 468 32,000  Level Oakland Center
Thu 02:17:25 AM 37.3872 -120.0994 290° West 398 458 32,000  Level Oakland Center
Thu 02:18:25 AM 37.4233 -120.2275 290° West 386 444 32,000 -347 Level Oakland Center
Thu 02:19:26 AM 37.4606 -120.3556 290° West 388 447 31,300 -992 Descending Oakland Center
Thu 02:20:26 AM 37.4969 -120.4850 290° West 390 449 30,000 -1,785 Descending Oakland Center
Thu 02:21:27 AM 37.5333 -120.6136 290° West 390 449 27,700 -2,281 Descending Oakland Center
Thu 02:22:27 AM 37.5692 -120.7431 289° West 389 448 25,400 -1,934 Descending Oakland Center
Thu 02:23:28 AM 37.6025 -120.8697 288° West 381 438 23,800 -1,930 Descending Oakland Center
Thu 02:24:22 AM 37.6167 -120.9833 279° West 355 409 21,700 -2,895 Descending Northern Cal TRACON
Thu 02:25:22 AM 37.6167 -121.1167 270° West 393 452 18,300 -2,450 Descending Northern Cal TRACON
Thu 02:26:22 AM 37.6000 -121.2333 260° West 360 414 16,800 -1,800 Descending Northern Cal TRACON
Thu 02:27:22 AM 37.5833 -121.3500 260° West 347 399 14,700 -1,950 Descending Northern Cal TRACON
Thu 02:28:22 AM 37.5667 -121.4667 260° West 335 386 12,900 -1,800 Descending Northern Cal TRACON
Thu 02:29:22 AM 37.5333 -121.5833 250° West 321 369 11,100 -1,300 Descending Northern Cal TRACON
Thu 02:30:22 AM 37.5167 -121.6833 258° West 291 335 10,300 -1,150 Descending Northern Cal TRACON
Thu 02:31:22 AM 37.5000 -121.7833 258° West 297 342 8,800 -1,150 Descending Northern Cal TRACON
Thu 02:32:22 AM 37.4833 -121.8833 258° West 275 316 8,000 -1,100 Descending Northern Cal TRACON
Thu 02:33:22 AM 37.5000 -121.9667 284° West 252 290 6,600 -1,350 Descending Northern Cal TRACON
Thu 02:34:22 AM 37.5167 -122.0500 284° West 242 278 5,300 -1,250 Descending Northern Cal TRACON
Thu 02:35:22 AM 37.5500 -122.1167 302° West 236 272 4,100 -1,250 Descending Northern Cal TRACON
Thu 02:36:22 AM 37.5667 -122.2000 284° West 212 244 2,800 -1,150 Descending Northern Cal TRACON
Thu 02:37:22 AM 37.5833 -122.2500 293° West 161 185 1,800 -850 Descending Northern Cal TRACON
Thu 02:38:22 AM 37.5833 -122.3000 270° West 134 154 1,100 -700 Descending Northern Cal TRACON
Thu 02:39:22 AM 37.6000 -122.3333 302° West 137 158 400 -700 Descending Northern Cal TRACON
Thu 02:41:00 AM 37.6167 -122.3667 322° Northwest  Level FlightAware Approximate
Thu 02:48:00 AM 37.6191 -122.3752 322° Northwest  Level Estimated

Login

Don't have an account? Register now (free) for customized features, flight alerts, and more!